Time;durP1;ratioP1;P1;durP2;ratioP2;P2;SDS_P1;SDS_P2;PMS_P1;PMS_P2;Temp;Humidity;BMP_temperature;BMP_pressure;BME280_temperature;BME280_humidity;BME280_pressure;Samples;Min_cycle;Max_cycle;Signal;HPM_P1;HPM_P2
2022/06/18 00:02:18;;;;;;;11.93;9.00;;;18.50;85.90;;;;;;6214452;23;20009;-77
2022/06/18 00:04:45;;;;;;;14.52;9.50;;;18.50;85.60;;;;;;6240720;23;20005;-77
2022/06/18 00:07:16;;;;;;;14.45;9.48;;;18.50;85.60;;;;;;6217145;23;20017;-77
2022/06/18 00:09:44;;;;;;;14.05;9.63;;;18.50;85.60;;;;;;6215508;23;20008;-78
2022/06/18 00:15:01;;;;;;;16.30;10.90;;;18.50;85.60;;;;;;6215410;23;20013;-78
2022/06/18 00:17:27;;;;;;;14.32;8.98;;;18.50;85.80;;;;;;6190324;23;20330;-78
2022/06/18 00:19:53;;;;;;;12.43;9.68;;;18.40;85.70;;;;;;6215446;23;20096;-80
2022/06/18 00:22:22;;;;;;;12.60;8.85;;;18.40;85.90;;;;;;6194772;23;20023;-77
2022/06/18 00:24:48;;;;;;;13.05;8.77;;;18.40;86.30;;;;;;6195248;23;20012;-76
2022/06/18 00:27:16;;;;;;;12.80;10.18;;;18.40;86.60;;;;;;6195354;23;20015;-77
2022/06/18 00:29:42;;;;;;;15.00;9.10;;;18.40;87.00;;;;;;6220044;23;20015;-78
2022/06/18 00:32:09;;;;;;;15.68;9.00;;;18.40;87.50;;;;;;6219678;23;20423;-77
2022/06/18 00:34:34;;;;;;;;;;;18.40;88.00;;;;;;6195438;23;20047;-78
2022/06/18 00:37:00;;;;;;;15.52;8.35;;;18.40;90.00;;;;;;6195136;23;19915;-79
2022/06/18 00:39:28;;;;;;;13.23;8.13;;;18.40;88.40;;;;;;6195060;22;20027;-79
2022/06/18 00:41:54;;;;;;;14.07;8.52;;;18.40;88.70;;;;;;6195264;23;20095;-77
2022/06/18 00:44:33;;;;;;;13.70;7.60;;;18.40;89.00;;;;;;6194583;23;20378;-80
2022/06/18 00:47:27;;;;;;;12.45;8.07;;;18.40;90.30;;;;;;6220308;23;20322;-78
2022/06/18 00:50:06;;;;;;;11.25;7.90;;;18.30;90.50;;;;;;6195262;23;20039;-77
2022/06/18 00:52:34;;;;;;;14.30;7.72;;;18.30;90.70;;;;;;6194786;23;20008;-78
2022/06/18 00:55:12;;;;;;;20.38;8.70;;;18.30;90.40;;;;;;6194410;23;20494;-77
2022/06/18 00:58:00;;;;;;;20.23;9.27;;;18.30;91.30;;;;;;6219973;23;20012;-78
2022/06/18 01:00:33;;;;;;;24.25;10.65;;;18.30;92.20;;;;;;6219776;23;20439;-77
2022/06/18 01:02:59;;;;;;;20.65;9.85;;;18.30;91.40;;;;;;6194486;23;20004;-78
2022/06/18 01:05:38;;;;;;;22.13;9.75;;;18.30;91.40;;;;;;6219480;23;20308;-76
2022/06/18 01:08:19;;;;;;;18.35;9.75;;;18.20;91.60;;;;;;6194655;23;20012;-78
2022/06/18 01:10:52;;;;;;;23.13;10.07;;;18.30;92.00;;;;;;6226035;23;20019;-77
2022/06/18 01:13:22;;;;;;;21.27;9.95;;;18.20;92.00;;;;;;6199580;23;20054;-78
2022/06/18 01:15:49;;;;;;;21.83;9.77;;;18.20;92.10;;;;;;6220021;23;20043;-78
2022/06/18 01:18:15;;;;;;;22.75;10.68;;;18.10;92.00;;;;;;6195487;23;20004;-77
2022/06/18 01:21:16;;;;;;;18.98;10.35;;;18.10;92.00;;;;;;6219460;23;20300;-77
2022/06/18 01:24:27;;;;;;;19.95;9.82;;;18.10;93.00;;;;;;6193839;23;20008;-78
2022/06/18 01:26:54;;;;;;;27.58;10.88;;;18.00;92.70;;;;;;6149508;23;20019;-77
2022/06/18 01:29:20;;;;;;;23.33;11.20;;;18.00;92.40;;;;;;6194700;22;20446;-77
2022/06/18 01:31:47;;;;;;;22.80;11.52;;;17.90;92.50;;;;;;6194743;23;20423;-79
2022/06/18 01:34:15;;;;;;;23.05;10.00;;;17.90;92.70;;;;;;6219353;23;20043;-77
2022/06/18 01:36:41;;;;;;;29.50;12.52;;;17.90;92.70;;;;;;6194721;23;20049;-79
2022/06/18 01:39:14;;;;;;;27.55;12.95;;;17.80;93.00;;;;;;6194341;23;20020;-76
2022/06/18 01:41:50;;;;;;;30.45;12.75;;;17.80;93.00;;;;;;6219509;23;20016;-77
2022/06/18 01:44:40;;;;;;;25.87;12.30;;;17.70;93.40;;;;;;6218775;23;20015;-78
2022/06/18 01:47:27;;;;;;;29.05;13.43;;;17.60;93.20;;;;;;6219373;23;20012;-79
2022/06/18 01:49:59;;;;;;;22.67;13.15;;;17.60;94.00;;;;;;6219471;23;20087;-79
2022/06/18 01:52:31;;;;;;;20.08;13.07;;;17.50;93.50;;;;;;6194320;23;20098;-77
2022/06/18 01:55:02;;;;;;;27.40;12.80;;;17.40;93.60;;;;;;6193963;23;20374;-77
2022/06/18 01:57:35;;;;;;;34.10;15.20;;;17.30;93.50;;;;;;6219659;23;20327;-77
2022/06/18 02:00:07;;;;;;;29.58;14.07;;;17.40;93.80;;;;;;6194613;23;20012;-79
2022/06/18 02:02:33;;;;;;;29.67;15.57;;;17.30;93.90;;;;;;6219576;23;20455;-79
2022/06/18 02:04:59;;;;;;;31.75;15.43;;;17.30;93.90;;;;;;6218687;23;20020;-77
2022/06/18 02:07:24;;;;;;;35.30;16.20;;;17.20;94.00;;;;;;6194491;23;20008;-76
2022/06/18 02:09:56;;;;;;;32.95;16.33;;;17.20;94.20;;;;;;6219465;23;20095;-78
2022/06/18 02:12:26;;;;;;;32.65;15.57;;;17.20;94.40;;;;;;6193791;23;20016;-77
2022/06/18 02:14:57;;;;;;;30.08;16.00;;;17.10;94.50;;;;;;6194877;23;20035;-78
2022/06/18 02:17:24;;;;;;;29.73;17.33;;;17.10;94.60;;;;;;6194299;23;20054;-78
2022/06/18 02:20:07;;;;;;;31.67;15.73;;;17.00;94.60;;;;;;6219937;23;20012;-77
2022/06/18 02:22:40;;;;;;;27.48;15.05;;;16.90;94.60;;;;;;6215384;23;20013;-77
2022/06/18 02:25:06;;;;;;;34.85;16.58;;;16.80;94.80;;;;;;6216702;23;20016;-78
2022/06/18 02:27:33;;;;;;;21.83;13.82;;;16.70;94.70;;;;;;6191603;23;20031;-78
2022/06/18 02:29:59;;;;;;;28.38;16.08;;;16.70;94.60;;;;;;6216243;23;20012;-78
2022/06/18 02:32:33;;;;;;;26.02;14.73;;;16.60;95.00;;;;;;6190857;23;20013;-77
2022/06/18 02:34:59;;;;;;;33.30;14.65;;;16.70;94.90;;;;;;6191242;23;20020;-77
2022/06/18 02:37:27;;;;;;;30.98;16.20;;;16.60;94.80;;;;;;6191054;23;20048;-77
2022/06/18 02:40:01;;;;;;;35.33;15.23;;;16.60;95.00;;;;;;6215789;23;20009;-79
2022/06/18 02:42:31;;;;;;;32.20;16.23;;;16.60;95.00;;;;;;6196300;23;20009;-81
2022/06/18 02:44:57;;;;;;;30.80;15.48;;;16.50;95.20;;;;;;6219857;23;20458;-78
2022/06/18 02:47:24;;;;;;;30.88;15.20;;;16.50;95.10;;;;;;6192388;23;20365;-78
2022/06/18 02:50:08;;;;;;;24.80;14.20;;;16.50;95.20;;;;;;6192362;23;20059;-77
2022/06/18 02:52:38;;;;;;;33.33;15.52;;;16.50;95.30;;;;;;6216353;23;20012;-77
2022/06/18 02:55:26;;;;;;;33.97;15.68;;;16.50;95.00;;;;;;6211315;22;20035;-77
2022/06/18 02:58:05;;;;;;;39.25;18.02;;;16.40;95.20;;;;;;6219309;22;20008;-78
2022/06/18 03:00:36;;;;;;;33.20;16.58;;;16.40;95.10;;;;;;6244086;22;20007;-79
2022/06/18 03:03:03;;;;;;;28.23;14.70;;;16.40;95.50;;;;;;6219162;22;20005;-77
2022/06/18 03:05:29;;;;;;;37.97;18.88;;;16.40;95.30;;;;;;6193583;23;20024;-78
2022/06/18 03:07:55;;;;;;;24.17;15.05;;;16.40;95.30;;;;;;6190908;23;20008;-78
2022/06/18 03:13:05;;;;;;;35.92;18.58;;;16.30;95.60;;;;;;6215111;23;20012;-76
2022/06/18 03:15:31;;;;;;;33.78;16.13;;;16.30;95.80;;;;;;6190705;23;20015;-78
2022/06/18 03:18:01;;;;;;;30.63;15.27;;;16.30;95.40;;;;;;6190878;23;20087;-79
2022/06/18 03:21:02;;;;;;;34.92;17.58;;;16.30;95.50;;;;;;6215871;23;20012;-78
2022/06/18 03:23:28;;;;;;;33.30;18.13;;;16.30;95.90;;;;;;6204782;23;20005;-79
2022/06/18 03:25:54;;;;;;;31.27;20.30;;;16.30;95.90;;;;;;6190917;23;20048;-77
2022/06/18 03:28:22;;;;;;;36.30;17.42;;;16.30;96.60;;;;;;6216005;23;20009;-79
2022/06/18 03:30:48;;;;;;;31.00;18.08;;;16.30;96.10;;;;;;6215096;23;20118;-77
2022/06/18 03:33:14;;;;;;;35.50;18.80;;;16.30;95.90;;;;;;6215490;23;20439;-78
2022/06/18 03:35:44;;;;;;;29.42;17.35;;;16.30;95.90;;;;;;6215875;23;20035;-76
2022/06/18 03:38:17;;;;;;;40.60;18.38;;;16.30;96.00;;;;;;6216180;23;20564;-78
2022/06/18 03:40:44;;;;;;;33.47;18.05;;;16.30;96.00;;;;;;6215661;23;20013;-77
2022/06/18 03:43:11;;;;;;;34.75;18.98;;;16.30;96.10;;;;;;6215342;23;20091;-77
2022/06/18 03:45:43;;;;;;;36.83;17.23;;;16.40;96.10;;;;;;6190240;23;20027;-80
2022/06/18 03:48:19;;;;;;;32.28;16.40;;;16.40;96.40;;;;;;6215600;23;20016;-79
2022/06/18 03:50:44;;;;;;;35.20;16.73;;;16.40;96.50;;;;;;6215156;23;20331;-78
2022/06/18 03:53:10;;;;;;;33.97;17.38;;;16.40;96.30;;;;;;6215434;23;20019;-78
2022/06/18 03:55:37;;;;;;;30.83;15.07;;;16.40;96.30;;;;;;6190346;23;20028;-78
2022/06/18 03:58:04;;;;;;;30.73;15.85;;;16.40;96.30;;;;;;6190191;23;20009;-81
2022/06/18 04:00:29;;;;;;;28.33;16.08;;;16.40;96.50;;;;;;6190390;23;20009;-78
2022/06/18 04:02:55;;;;;;;27.42;16.83;;;16.40;96.20;;;;;;6215040;23;20015;-80
2022/06/18 04:05:21;;;;;;;28.05;15.93;;;16.40;96.20;;;;;;6215703;23;20107;-79
2022/06/18 04:07:46;;;;;;;34.67;15.75;;;16.50;96.30;;;;;;6190521;23;20434;-78
2022/06/18 04:10:21;;;;;;;29.38;15.23;;;16.50;96.40;;;;;;6190363;23;20319;-78
2022/06/18 04:12:47;;;;;;;33.28;16.27;;;16.50;96.50;;;;;;6214747;23;20416;-77
2022/06/18 04:15:15;;;;;;;25.63;14.18;;;16.50;96.50;;;;;;6195094;23;20008;-78
2022/06/18 04:17:41;;;;;;;27.63;14.88;;;16.60;96.30;;;;;;6197146;23;20035;-77
2022/06/18 04:20:15;;;;;;;24.40;13.60;;;16.70;96.40;;;;;;6215646;23;20005;-77
2022/06/18 04:22:41;;;;;;;32.42;13.93;;;16.70;96.30;;;;;;6189456;23;20017;-77
2022/06/18 04:25:07;;;;;;;29.83;13.02;;;16.80;96.20;;;;;;6190068;23;20091;-80
2022/06/18 04:27:33;;;;;;;26.70;12.35;;;16.90;96.00;;;;;;6190213;23;20304;-78
2022/06/18 04:29:59;;;;;;;28.83;12.95;;;17.00;95.80;;;;;;6164925;23;20019;-77
2022/06/18 04:32:24;;;;;;;21.98;11.23;;;17.10;95.80;;;;;;6164528;23;20024;-79
2022/06/18 04:34:50;;;;;;;24.95;11.43;;;17.20;95.80;;;;;;6165096;23;20005;-78
2022/06/18 04:37:16;;;;;;;34.00;11.90;;;17.30;95.60;;;;;;6190500;23;20013;-78
2022/06/18 04:39:41;;;;;;;25.88;11.77;;;17.40;95.60;;;;;;6189768;23;20132;-78
2022/06/18 04:42:07;;;;;;;25.35;10.38;;;17.40;95.60;;;;;;6189160;23;20498;-77
2022/06/18 04:44:33;;;;;;;28.75;11.23;;;17.60;95.60;;;;;;6189772;23;20296;-79
2022/06/18 04:46:58;;;;;;;26.08;11.18;;;17.60;95.40;;;;;;6164927;23;20055;-79
2022/06/18 04:49:24;;;;;;;32.85;11.63;;;17.80;95.30;;;;;;6165116;23;20017;-79
2022/06/18 04:51:50;;;;;;;22.30;10.65;;;17.90;95.40;;;;;;6164414;23;20080;-81
2022/06/18 04:54:18;;;;;;;26.23;9.18;;;18.00;95.20;;;;;;6190222;23;20419;-79
2022/06/18 04:56:44;;;;;;;18.02;8.63;;;18.10;95.00;;;;;;6165369;23;20454;-81
2022/06/18 04:59:10;;;;;;;26.42;9.82;;;18.30;94.90;;;;;;6189769;23;20017;-79
2022/06/18 05:01:36;;;;;;;20.35;8.50;;;18.40;94.60;;;;;;6164276;23;20020;-79
2022/06/18 05:04:01;;;;;;;16.42;7.85;;;18.50;94.60;;;;;;6164920;23;20013;-79
2022/06/18 05:06:27;;;;;;;19.73;8.30;;;18.70;94.40;;;;;;6190012;23;20008;-78
2022/06/18 05:08:53;;;;;;;16.33;8.13;;;18.80;94.30;;;;;;6165192;23;20017;-80
2022/06/18 05:11:20;;;;;;;15.63;7.75;;;19.00;94.20;;;;;;6164738;23;20319;-77
2022/06/18 05:13:46;;;;;;;16.15;7.20;;;19.10;93.90;;;;;;6189732;23;20036;-77
2022/06/18 05:16:13;;;;;;;20.30;7.30;;;19.30;93.80;;;;;;6164639;23;20009;-77
2022/06/18 05:18:44;;;;;;;17.52;7.82;;;19.40;93.50;;;;;;6164588;23;20016;-79
2022/06/18 05:21:10;;;;;;;15.57;6.32;;;19.50;93.40;;;;;;6164561;23;20008;-79
2022/06/18 05:23:36;;;;;;;14.00;5.97;;;19.30;93.40;;;;;;6187933;23;20044;-79
2022/06/18 05:26:09;;;;;;;15.88;6.22;;;19.10;93.50;;;;;;6214840;23;20074;-78
2022/06/18 05:28:36;;;;;;;14.10;6.13;;;19.00;94.00;;;;;;6190039;23;20067;-78
2022/06/18 05:31:01;;;;;;;15.80;6.30;;;18.90;94.00;;;;;;6213739;23;20012;-79
2022/06/18 05:33:27;;;;;;;18.02;6.28;;;19.10;93.90;;;;;;6189892;23;20024;-78
2022/06/18 05:35:53;;;;;;;12.10;5.82;;;19.10;93.80;;;;;;6214751;23;20040;-77
2022/06/18 05:38:20;;;;;;;16.50;6.57;;;19.20;93.70;;;;;;6214739;23;20492;-76
2022/06/18 05:40:46;;;;;;;15.48;5.53;;;19.30;93.70;;;;;;6188716;23;20021;-79
2022/06/18 05:43:12;;;;;;;11.18;5.30;;;19.40;93.60;;;;;;6190928;23;20087;-78
2022/06/18 05:45:42;;;;;;;10.85;4.78;;;19.50;93.50;;;;;;6219871;23;20383;-77
2022/06/18 05:48:11;;;;;;;17.30;5.70;;;19.50;93.30;;;;;;6244521;23;20023;-78
2022/06/18 05:50:37;;;;;;;13.32;5.28;;;19.50;93.10;;;;;;6215466;23;20058;-79
2022/06/18 05:53:03;;;;;;;14.13;5.72;;;19.50;93.20;;;;;;6214603;23;20407;-78
2022/06/18 05:55:29;;;;;;;13.90;5.55;;;19.40;93.60;;;;;;6214730;23;20048;-78
2022/06/18 05:57:56;;;;;;;10.70;4.75;;;19.50;93.30;;;;;;6189343;23;20005;-79
2022/06/18 06:00:25;;;;;;;11.73;4.50;;;19.60;93.40;;;;;;6213502;23;20013;-79
2022/06/18 06:02:51;;;;;;;9.85;4.30;;;19.70;93.30;;;;;;6239474;23;20008;-79
2022/06/18 06:05:17;;;;;;;13.70;4.30;;;19.90;93.00;;;;;;6214469;23;20016;-78
2022/06/18 06:07:44;;;;;;;13.05;3.58;;;19.90;92.80;;;;;;6189497;23;20062;-79
2022/06/18 06:13:24;;;;;;;6.65;2.85;;;20.20;92.50;;;;;;6187173;23;20023;-78
2022/06/18 06:15:52;;;;;;;6.22;2.22;;;20.40;92.40;;;;;;6214074;23;20008;-79
2022/06/18 06:18:19;;;;;;;4.38;2.10;;;20.40;91.80;;;;;;6188980;23;20066;-78
2022/06/18 06:20:49;;;;;;;5.80;2.22;;;20.40;91.80;;;;;;6188593;23;20012;-78
2022/06/18 06:23:15;;;;;;;10.13;2.20;;;20.50;91.70;;;;;;6188426;23;20034;-78
2022/06/18 06:25:43;;;;;;;5.78;2.40;;;20.50;91.70;;;;;;6219146;23;20014;-81
2022/06/18 06:28:18;;;;;;;5.32;2.28;;;20.50;91.60;;;;;;6193986;23;20015;-78
2022/06/18 06:30:44;;;;;;;5.72;1.85;;;20.40;91.40;;;;;;6218695;23;20005;-80
2022/06/18 06:33:10;;;;;;;4.97;2.20;;;20.30;91.50;;;;;;6194240;23;20013;-77
2022/06/18 06:35:36;;;;;;;6.10;1.95;;;20.40;91.60;;;;;;6219303;23;20642;-79
2022/06/18 06:38:03;;;;;;;4.55;1.60;;;20.30;91.40;;;;;;6219043;23;20008;-78
2022/06/18 06:40:32;;;;;;;6.78;1.88;;;20.40;91.40;;;;;;6218750;23;20012;-79
2022/06/18 06:42:58;;;;;;;7.32;1.80;;;20.60;91.60;;;;;;6193834;23;20016;-81
2022/06/18 06:45:28;;;;;;;8.98;1.73;;;20.70;91.00;;;;;;6194387;23;20304;-78
2022/06/18 06:47:54;;;;;;;4.90;1.80;;;20.90;91.10;;;;;;6194299;23;20016;-79
2022/06/18 06:50:20;;;;;;;;;;;21.10;90.40;;;;;;6219687;23;20326;-78
2022/06/18 06:52:50;;;;;;;5.18;1.42;;;21.10;90.20;;;;;;6194243;23;19939;-78
2022/06/18 06:58:11;;;;;;;2.88;1.42;;;21.20;90.10;;;;;;6218791;23;20020;-80
2022/06/18 07:00:47;;;;;;;8.25;1.77;;;21.10;89.90;;;;;;6193180;23;20012;-79
2022/06/18 07:03:18;;;;;;;8.65;1.80;;;21.20;89.70;;;;;;6193648;23;20004;-78
2022/06/18 07:05:44;;;;;;;7.85;1.70;;;21.30;89.10;;;;;;6194468;23;20008;-80
2022/06/18 07:08:10;;;;;;;6.88;1.80;;;21.30;89.10;;;;;;6195728;23;20008;-79
2022/06/18 07:10:36;;;;;;;6.18;1.70;;;21.40;88.90;;;;;;6195129;23;20095;-76
2022/06/18 07:13:02;;;;;;;6.03;2.17;;;21.40;88.70;;;;;;6220972;23;20004;-75
2022/06/18 07:15:28;;;;;;;5.32;1.90;;;21.60;89.10;;;;;;6221184;23;20366;-72
2022/06/18 07:17:54;;;;;;;5.75;1.67;;;21.80;88.10;;;;;;6220912;23;20039;-74
2022/06/18 07:20:23;;;;;;;7.32;1.80;;;21.80;87.90;;;;;;6220223;23;20323;-72
2022/06/18 07:22:49;;;;;;;5.28;1.40;;;21.80;87.50;;;;;;6221005;23;20055;-73
2022/06/18 07:25:15;;;;;;;8.48;2.00;;;21.70;87.30;;;;;;6220970;23;20350;-74
2022/06/18 07:27:41;;;;;;;;;;;21.80;87.90;;;;;;6247785;23;20488;-74
2022/06/18 07:30:08;;;;;;;4.40;1.75;;;21.80;87.90;;;;;;6195110;22;19919;-74
2022/06/18 07:32:36;;;;;;;8.52;2.13;;;21.90;87.50;;;;;;6220722;23;20015;-73
2022/06/18 07:35:03;;;;;;;5.75;1.98;;;21.80;87.70;;;;;;6220759;23;20012;-69
2022/06/18 07:37:30;;;;;;;4.95;2.10;;;22.00;87.90;;;;;;6247702;23;20013;-68
2022/06/18 07:39:55;;;;;;;;;;;22.00;87.20;;;;;;6195282;22;20381;-68
2022/06/18 07:42:23;;;;;;;5.15;1.95;;;22.20;86.50;;;;;;6195734;23;19954;-68
2022/06/18 07:44:49;;;;;;;7.38;2.25;;;22.30;86.80;;;;;;6171193;23;20090;-69
2022/06/18 07:47:17;;;;;;;4.63;2.00;;;22.40;85.30;;;;;;6245893;23;20107;-69
2022/06/18 07:49:45;;;;;;;6.72;1.95;;;22.20;85.70;;;;;;6195096;23;20038;-68
2022/06/18 07:52:15;;;;;;;8.68;2.05;;;22.20;86.20;;;;;;6245807;22;20008;-69
2022/06/18 07:54:42;;;;;;;8.20;1.98;;;22.10;85.80;;;;;;6220716;23;20008;-69
2022/06/18 07:57:08;;;;;;;4.35;1.95;;;21.90;85.80;;;;;;6220704;23;20375;-68
2022/06/18 07:59:34;;;;;;;;;;;22.10;86.60;;;;;;6195249;23;20014;-70
2022/06/18 08:02:00;;;;;;;9.98;1.90;;;22.20;85.20;;;;;;6220672;23;19993;-71
2022/06/18 08:04:26;;;;;;;5.20;1.92;;;22.30;85.20;;;;;;6245532;23;20081;-73
2022/06/18 08:06:52;;;;;;;7.70;2.13;;;22.10;84.00;;;;;;6220432;23;20016;-73
2022/06/18 08:09:19;;;;;;;8.10;1.80;;;22.10;85.10;;;;;;6246302;23;20020;-73
2022/06/18 08:11:44;;;;;;;;;;;22.10;85.40;;;;;;6220589;23;20008;-74
2022/06/18 08:14:10;;;;;;;6.60;1.83;;;22.30;85.20;;;;;;6195443;23;19918;-73
2022/06/18 08:16:36;;;;;;;4.90;1.67;;;22.40;84.70;;;;;;6195532;23;20055;-74
2022/06/18 08:19:02;;;;;;;5.32;2.00;;;22.40;84.00;;;;;;6219632;23;20013;-73
2022/06/18 08:21:31;;;;;;;;;;;22.40;84.00;;;;;;6195107;23;20104;-73
2022/06/18 08:24:02;;;;;;;5.88;1.77;;;22.50;84.00;;;;;;6220144;23;19922;-71
2022/06/18 08:26:29;;;;;;;8.68;1.75;;;22.70;84.40;;;;;;6195411;23;20086;-72
2022/06/18 08:29:00;;;;;;;11.15;2.05;;;22.80;82.90;;;;;;6220028;23;20009;-74
2022/06/18 08:31:26;;;;;;;7.00;2.00;;;22.80;83.30;;;;;;6219640;23;20019;-73
2022/06/18 08:33:52;;;;;;;6.65;1.70;;;22.90;83.80;;;;;;6219990;23;20328;-74
2022/06/18 08:36:18;;;;;;;;;;;23.00;83.60;;;;;;6220500;23;20008;-74
2022/06/18 08:38:46;;;;;;;5.10;1.60;;;23.10;83.20;;;;;;6219719;23;19915;-72
2022/06/18 08:41:30;;;;;;;5.78;1.50;;;23.10;83.10;;;;;;6194762;23;20054;-72
2022/06/18 08:44:19;;;;;;;8.82;2.00;;;23.00;82.90;;;;;;6246409;23;20004;-73
2022/06/18 08:46:54;;;;;;;6.38;2.13;;;23.00;83.50;;;;;;6199712;23;20058;-71
2022/06/18 08:49:42;;;;;;;7.95;2.15;;;23.00;82.60;;;;;;6250253;23;20019;-72
2022/06/18 08:52:39;;;;;;;9.27;1.70;;;22.70;82.10;;;;;;6224591;23;20506;-72
2022/06/18 08:55:41;;;;;;;5.15;1.50;;;22.50;83.50;;;;;;6202721;23;20012;-73
2022/06/18 08:58:20;;;;;;;7.13;1.58;;;22.40;83.40;;;;;;6214911;23;20023;-75
2022/06/18 09:01:10;;;;;;;19.20;2.20;;;22.30;83.70;;;;;;6193884;23;20019;-74
2022/06/18 09:04:03;;;;;;;6.88;1.77;;;22.30;84.50;;;;;;6220212;23;20089;-73
2022/06/18 09:06:47;;;;;;;3.65;1.42;;;22.40;85.30;;;;;;6219205;23;20016;-73
2022/06/18 09:09:36;;;;;;;6.03;1.25;;;22.40;84.30;;;;;;6219498;23;20008;-72
2022/06/18 09:12:06;;;;;;;4.25;1.35;;;22.90;83.80;;;;;;6219712;23;20091;-73
2022/06/18 09:15:05;;;;;;;5.05;1.40;;;23.10;82.80;;;;;;6219791;23;20015;-75
2022/06/18 09:17:48;;;;;;;4.80;1.23;;;23.40;81.60;;;;;;6193737;23;20019;-76
2022/06/18 09:20:34;;;;;;;4.97;1.38;;;23.60;81.00;;;;;;6194536;22;20026;-74
2022/06/18 09:23:43;;;;;;;4.70;1.13;;;23.60;78.30;;;;;;6213845;23;20015;-75
2022/06/18 09:26:41;;;;;;;6.95;1.88;;;23.40;79.30;;;;;;6206978;23;20063;-77
2022/06/18 09:29:18;;;;;;;4.95;1.15;;;23.20;80.00;;;;;;6186902;23;20017;-79
2022/06/18 09:31:48;;;;;;;8.23;1.60;;;23.30;78.70;;;;;;6186975;23;20347;-78
2022/06/18 09:34:20;;;;;;;2.95;0.80;;;23.30;78.70;;;;;;6187852;23;20009;-77
2022/06/18 09:36:49;;;;;;;4.30;1.10;;;23.10;76.50;;;;;;6212953;23;20008;-69
2022/06/18 09:39:23;;;;;;;7.35;1.15;;;23.00;77.80;;;;;;6212327;23;20009;-75
2022/06/18 09:42:21;;;;;;;4.55;0.95;;;23.10;77.30;;;;;;6187504;23;20458;-75
2022/06/18 09:45:25;;;;;;;6.82;1.75;;;23.20;76.10;;;;;;6171446;23;20025;-81
2022/06/18 09:47:52;;;;;;;4.30;1.00;;;23.10;76.00;;;;;;6194652;23;20351;-75
2022/06/18 09:50:44;;;;;;;2.70;1.00;;;23.30;76.80;;;;;;6213669;23;20047;-75
2022/06/18 09:53:16;;;;;;;9.70;1.50;;;23.10;76.90;;;;;;6213325;23;20012;-76
2022/06/18 10:19:09;;;;;;;6.88;1.20;;;24.10;72.80;;;;;;6155776;23;20020;-72
2022/06/18 10:21:44;;;;;;;4.68;1.35;;;24.20;71.10;;;;;;6129807;23;20005;-78
2022/06/18 10:24:19;;;;;;;6.75;1.20;;;24.10;72.30;;;;;;6193849;23;20012;-79
2022/06/18 10:28:02;;;;;;;4.70;1.05;;;24.00;72.20;;;;;;6101327;23;20381;-76
2022/06/18 10:30:55;;;;;;;4.00;1.00;;;24.00;71.70;;;;;;6098319;23;20906;-78
2022/06/18 10:37:20;;;;;;;4.75;1.20;;;23.80;72.00;;;;;;6244955;23;20043;-77
2022/06/18 10:40:04;;;;;;;6.15;1.13;;;23.80;70.60;;;;;;6217970;23;20008;-77
2022/06/18 10:42:42;;;;;;;3.67;0.80;;;23.90;71.20;;;;;;6219019;23;20012;-74
2022/06/18 10:45:20;;;;;;;5.32;1.10;;;23.80;68.90;;;;;;6218760;23;20446;-71
2022/06/18 10:58:32;;;;;;;4.60;0.90;;;23.20;67.60;;;;;;6088360;23;20017;-76
2022/06/18 11:01:32;;;;;;;8.98;1.30;;;23.00;69.00;;;;;;6142413;23;20017;-74
2022/06/18 11:04:03;;;;;;;8.38;1.20;;;23.20;69.70;;;;;;6187530;23;20009;-72
2022/06/18 11:06:43;;;;;;;9.40;1.38;;;23.10;70.00;;;;;;6188350;23;20012;-73
2022/06/18 11:09:19;;;;;;;5.38;1.15;;;23.30;70.80;;;;;;6163535;23;20031;-75
2022/06/18 11:11:55;;;;;;;6.18;1.33;;;23.60;70.40;;;;;;6164559;23;20013;-73
2022/06/18 11:14:21;;;;;;;8.38;1.52;;;23.60;69.90;;;;;;6219223;23;20111;-73
2022/06/18 11:16:51;;;;;;;7.40;1.42;;;23.60;69.20;;;;;;6219243;23;20012;-77
2022/06/18 11:19:48;;;;;;;8.95;1.35;;;23.40;70.20;;;;;;6220053;23;20013;-77
2022/06/18 11:22:25;;;;;;;7.10;1.60;;;23.50;68.90;;;;;;6190722;23;20459;-71
2022/06/18 11:25:00;;;;;;;7.50;1.30;;;23.30;70.40;;;;;;6190894;23;20248;-73
2022/06/18 11:27:36;;;;;;;6.68;1.13;;;23.40;71.10;;;;;;6217148;23;20015;-74
2022/06/18 11:30:18;;;;;;;9.55;1.63;;;23.70;70.80;;;;;;6213386;23;20083;-72
2022/06/18 11:33:10;;;;;;;6.63;1.40;;;23.80;69.20;;;;;;6214271;23;20013;-71
2022/06/18 11:35:37;;;;;;;11.45;1.73;;;23.70;68.20;;;;;;6214355;23;20075;-69
2022/06/18 11:38:25;;;;;;;8.57;1.70;;;23.40;68.90;;;;;;6214083;23;20008;-69
2022/06/18 11:40:56;;;;;;;8.43;1.80;;;23.40;68.10;;;;;;6215200;23;20091;-72
2022/06/18 11:43:39;;;;;;;9.27;1.83;;;23.30;67.80;;;;;;6239569;23;20008;-76
2022/06/18 11:46:26;;;;;;;7.75;1.45;;;23.20;67.20;;;;;;6189574;23;20099;-72
2022/06/18 11:49:15;;;;;;;9.90;1.45;;;23.30;68.10;;;;;;6213908;23;20044;-75
2022/06/18 12:07:37;;;;;;;9.07;1.55;;;23.40;70.70;;;;;;5923938;24;20129;-75
2022/06/18 12:13:57;;;;;;;10.60;2.10;;;22.60;71.20;;;;;;6174883;23;20056;-73
2022/06/18 12:20:22;;;;;;;10.25;1.83;;;22.40;70.80;;;;;;6215075;23;20429;-75
2022/06/18 12:23:02;;;;;;;12.05;1.98;;;22.40;70.10;;;;;;6212525;23;20017;-71
2022/06/18 12:25:42;;;;;;;8.38;1.98;;;22.50;70.60;;;;;;6188684;23;20021;-72
2022/06/18 12:28:11;;;;;;;11.18;2.10;;;22.60;70.30;;;;;;6238861;23;20016;-74
2022/06/18 12:30:59;;;;;;;11.82;1.80;;;22.80;68.50;;;;;;6188652;23;20012;-76
2022/06/18 12:33:54;;;;;;;9.68;2.00;;;22.50;68.30;;;;;;6139793;23;20083;-76
2022/06/18 12:37:07;;;;;;;8.63;1.83;;;22.40;65.90;;;;;;6200152;23;20441;-76
2022/06/18 12:40:08;;;;;;;12.70;1.77;;;22.20;67.70;;;;;;6068802;23;20017;-76
2022/06/18 12:43:22;;;;;;;13.38;2.20;;;22.40;69.70;;;;;;6188003;23;20009;-76
2022/06/18 12:46:17;;;;;;;11.35;2.08;;;22.60;69.30;;;;;;6196695;23;20012;-75
2022/06/18 12:49:08;;;;;;;7.78;2.08;;;22.80;67.30;;;;;;6238767;23;20008;-77
2022/06/18 12:51:52;;;;;;;36.80;3.33;;;22.90;64.00;;;;;;6188240;23;20011;-75
2022/06/18 12:54:38;;;;;;;10.75;1.95;;;22.80;63.90;;;;;;6188395;23;20012;-75
2022/06/18 12:57:42;;;;;;;7.93;1.60;;;22.80;63.60;;;;;;6213878;23;20016;-75
2022/06/18 13:00:28;;;;;;;9.05;1.90;;;22.40;63.70;;;;;;6188455;23;20005;-76
2022/06/18 13:03:03;;;;;;;9.27;2.17;;;22.60;64.00;;;;;;6188223;23;20013;-76
2022/06/18 13:05:43;;;;;;;13.20;2.28;;;22.70;63.90;;;;;;6213790;23;20105;-76
2022/06/18 13:09:00;;;;;;;27.42;2.88;;;22.50;64.20;;;;;;6188941;23;20012;-76
2022/06/18 13:11:51;;;;;;;10.93;1.92;;;22.60;62.50;;;;;;6093600;23;20066;-76
2022/06/18 13:14:47;;;;;;;18.30;2.25;;;22.50;63.00;;;;;;6188047;23;20013;-77
2022/06/18 13:17:42;;;;;;;17.45;2.33;;;22.40;64.10;;;;;;6201032;23;20013;-74
2022/06/18 13:20:27;;;;;;;6.85;1.50;;;22.40;65.60;;;;;;6210005;23;20012;-73
2022/06/18 13:22:53;;;;;;;8.02;2.35;;;22.10;65.40;;;;;;6213671;23;20005;-75
2022/06/18 13:28:28;;;;;;;11.27;2.25;;;21.80;66.50;;;;;;6213714;23;20462;-74
2022/06/18 13:31:19;;;;;;;15.40;2.42;;;21.70;66.90;;;;;;6214410;23;20087;-72
2022/06/18 13:34:29;;;;;;;14.13;2.78;;;21.40;67.70;;;;;;6188477;23;20389;-74
2022/06/18 13:37:08;;;;;;;10.05;2.38;;;21.40;69.00;;;;;;6214295;23;20012;-78
2022/06/18 13:39:48;;;;;;;11.45;2.17;;;21.50;69.90;;;;;;6214553;23;20013;-74
2022/06/18 13:42:19;;;;;;;14.00;2.45;;;21.60;69.20;;;;;;6213364;23;20024;-75
2022/06/18 13:45:03;;;;;;;11.75;2.33;;;21.50;69.00;;;;;;6189088;23;20339;-74
2022/06/18 13:47:39;;;;;;;14.13;2.38;;;21.60;69.80;;;;;;6191237;23;20020;-75
2022/06/18 13:50:26;;;;;;;;;;;21.60;69.80;;;;;;6219524;23;20016;-77
2022/06/18 13:52:52;;;;;;;11.60;2.45;;;22.00;68.10;;;;;;6215748;23;19947;-75
2022/06/18 13:55:35;;;;;;;;;;;22.10;68.30;;;;;;6238688;22;20008;-73
2022/06/18 13:58:02;;;;;;;9.23;1.60;;;22.20;67.60;;;;;;6218140;23;19935;-74
2022/06/18 14:00:31;;;;;;;11.07;1.80;;;22.10;66.80;;;;;;6242024;22;19996;-75
2022/06/18 14:03:08;;;;;;;12.85;2.40;;;22.20;66.60;;;;;;6242185;22;19997;-75
2022/06/18 14:05:39;;;;;;;6.90;1.67;;;22.30;66.20;;;;;;6192041;23;20012;-73
2022/06/18 14:08:18;;;;;;;11.68;2.28;;;22.30;66.60;;;;;;6214082;23;20458;-75
2022/06/18 14:10:45;;;;;;;11.23;1.90;;;22.30;67.50;;;;;;6214112;23;20016;-74
2022/06/18 14:13:13;;;;;;;11.60;2.30;;;22.20;66.30;;;;;;6188185;23;20012;-75
2022/06/18 14:15:50;;;;;;;11.27;1.83;;;22.40;67.80;;;;;;6190431;23;20091;-74
2022/06/18 14:18:21;;;;;;;10.68;2.53;;;22.50;66.50;;;;;;6217483;23;20092;-75
2022/06/18 14:20:55;;;;;;;15.93;2.40;;;22.50;66.40;;;;;;6192477;23;20078;-75
2022/06/18 14:23:36;;;;;;;11.85;2.22;;;22.60;66.60;;;;;;6215494;23;20009;-74
2022/06/18 14:26:09;;;;;;;10.80;1.88;;;22.70;65.80;;;;;;6218615;23;20008;-74
2022/06/18 14:28:41;;;;;;;8.52;2.05;;;22.30;65.80;;;;;;6217628;23;20323;-75
2022/06/18 14:31:22;;;;;;;12.45;2.33;;;22.40;68.50;;;;;;6192539;23;20016;-74